sensor_id;sensor_type;location;lat;lon;timestamp;pressure;altitude;pressure_sealevel;temperature;humidity
48553;BME280;34335;51.566;6.994;2022-09-09T00:00:20;100272.78;;;15.76;89.08
48553;BME280;34335;51.566;6.994;2022-09-09T00:02:57;100270.50;;;15.65;90.21
48553;BME280;34335;51.566;6.994;2022-09-09T00:05:33;100271.91;;;15.46;92.25
48553;BME280;34335;51.566;6.994;2022-09-09T00:08:02;100272.41;;;15.58;86.84
48553;BME280;34335;51.566;6.994;2022-09-09T00:10:39;100273.06;;;15.67;87.67
48553;BME280;34335;51.566;6.994;2022-09-09T00:13:16;100274.84;;;15.66;86.49
48553;BME280;34335;51.566;6.994;2022-09-09T00:18:23;100266.59;;;15.79;82.66
48553;BME280;34335;51.566;6.994;2022-09-09T00:20:59;100266.56;;;15.80;82.90
48553;BME280;34335;51.566;6.994;2022-09-09T00:23:30;100268.69;;;15.67;91.32
48553;BME280;34335;51.566;6.994;2022-09-09T00:26:15;100273.59;;;15.48;91.67
48553;BME280;34335;51.566;6.994;2022-09-09T00:31:29;100275.50;;;15.73;82.59
48553;BME280;34335;51.566;6.994;2022-09-09T00:33:58;100276.50;;;15.69;84.04
48553;BME280;34335;51.566;6.994;2022-09-09T00:36:27;100274.78;;;15.68;87.81
48553;BME280;34335;51.566;6.994;2022-09-09T00:38:57;100274.66;;;15.72;82.49
48553;BME280;34335;51.566;6.994;2022-09-09T00:41:56;100265.13;;;15.68;87.13
48553;BME280;34335;51.566;6.994;2022-09-09T00:44:32;100268.81;;;15.63;83.50
48553;BME280;34335;51.566;6.994;2022-09-09T00:50:08;100273.25;;;15.61;82.82
48553;BME280;34335;51.566;6.994;2022-09-09T00:55:45;100269.56;;;15.35;87.80
48553;BME280;34335;51.566;6.994;2022-09-09T00:58:12;100272.88;;;15.43;89.64
48553;BME280;34335;51.566;6.994;2022-09-09T01:00:42;100263.81;;;15.23;87.74
48553;BME280;34335;51.566;6.994;2022-09-09T01:08:55;100269.84;;;15.25;88.29
48553;BME280;34335;51.566;6.994;2022-09-09T01:17:46;100265.84;;;15.12;94.76
48553;BME280;34335;51.566;6.994;2022-09-09T01:23:34;100267.72;;;15.07;93.61
48553;BME280;34335;51.566;6.994;2022-09-09T01:26:25;100251.97;;;15.08;91.96
48553;BME280;34335;51.566;6.994;2022-09-09T01:28:52;100250.84;;;15.19;86.97
48553;BME280;34335;51.566;6.994;2022-09-09T01:31:34;100258.56;;;15.23;87.71
48553;BME280;34335;51.566;6.994;2022-09-09T01:34:01;100254.88;;;15.31;91.86
48553;BME280;34335;51.566;6.994;2022-09-09T01:36:32;100262.88;;;15.24;86.51
48553;BME280;34335;51.566;6.994;2022-09-09T01:39:00;100253.06;;;15.33;87.46
48553;BME280;34335;51.566;6.994;2022-09-09T01:41:26;100250.59;;;15.26;90.40
48553;BME280;34335;51.566;6.994;2022-09-09T01:43:53;100254.22;;;15.22;88.09
48553;BME280;34335;51.566;6.994;2022-09-09T01:46:21;100250.72;;;15.23;86.83
48553;BME280;34335;51.566;6.994;2022-09-09T01:48:48;100244.38;;;15.31;87.01
48553;BME280;34335;51.566;6.994;2022-09-09T01:51:15;100245.50;;;15.22;88.25
48553;BME280;34335;51.566;6.994;2022-09-09T01:53:41;100250.03;;;15.15;91.59
48553;BME280;34335;51.566;6.994;2022-09-09T02:01:40;100241.66;;;15.02;87.51
48553;BME280;34335;51.566;6.994;2022-09-09T02:04:24;100245.03;;;15.06;88.04
48553;BME280;34335;51.566;6.994;2022-09-09T02:06:55;100248.66;;;15.02;88.26
48553;BME280;34335;51.566;6.994;2022-09-09T02:09:24;100245.16;;;15.01;87.71
48553;BME280;34335;51.566;6.994;2022-09-09T02:11:57;100242.84;;;14.90;95.08
48553;BME280;34335;51.566;6.994;2022-09-09T02:14:30;100245.63;;;14.84;91.16
48553;BME280;34335;51.566;6.994;2022-09-09T02:17:00;100250.94;;;14.81;93.63
48553;BME280;34335;51.566;6.994;2022-09-09T02:19:37;100252.03;;;14.72;98.22
48553;BME280;34335;51.566;6.994;2022-09-09T02:22:05;100248.31;;;14.81;90.40
48553;BME280;34335;51.566;6.994;2022-09-09T02:24:35;100255.41;;;14.77;91.83
48553;BME280;34335;51.566;6.994;2022-09-09T02:27:04;100247.50;;;14.79;93.25
48553;BME280;34335;51.566;6.994;2022-09-09T02:29:35;100249.28;;;14.77;94.81
48553;BME280;34335;51.566;6.994;2022-09-09T02:32:05;100257.03;;;14.82;93.34
48553;BME280;34335;51.566;6.994;2022-09-09T02:34:34;100251.91;;;14.77;90.80
48553;BME280;34335;51.566;6.994;2022-09-09T02:37:03;100251.84;;;14.80;96.19
48553;BME280;34335;51.566;6.994;2022-09-09T02:39:29;100252.84;;;14.74;95.75
48553;BME280;34335;51.566;6.994;2022-09-09T02:41:54;100258.00;;;14.77;97.23
48553;BME280;34335;51.566;6.994;2022-09-09T02:44:19;100262.31;;;14.80;91.46
48553;BME280;34335;51.566;6.994;2022-09-09T02:52:15;100255.16;;;14.87;90.17
48553;BME280;34335;51.566;6.994;2022-09-09T02:54:43;100248.16;;;14.87;94.20
48553;BME280;34335;51.566;6.994;2022-09-09T02:57:30;100256.91;;;14.86;92.72
48553;BME280;34335;51.566;6.994;2022-09-09T02:59:57;100248.16;;;14.87;91.80
48553;BME280;34335;51.566;6.994;2022-09-09T03:02:23;100253.38;;;14.89;97.57
48553;BME280;34335;51.566;6.994;2022-09-09T03:04:50;100259.63;;;14.82;96.21
48553;BME280;34335;51.566;6.994;2022-09-09T03:07:18;100247.13;;;14.94;95.77
48553;BME280;34335;51.566;6.994;2022-09-09T03:09:43;100254.50;;;14.78;94.26
48553;BME280;34335;51.566;6.994;2022-09-09T03:12:09;100239.31;;;14.91;95.95
48553;BME280;34335;51.566;6.994;2022-09-09T03:14:36;100248.25;;;14.84;91.04
48553;BME280;34335;51.566;6.994;2022-09-09T03:17:03;100238.69;;;14.83;95.59
48553;BME280;34335;51.566;6.994;2022-09-09T03:19:29;100242.34;;;14.76;93.91
48553;BME280;34335;51.566;6.994;2022-09-09T03:21:55;100239.56;;;14.82;92.52
48553;BME280;34335;51.566;6.994;2022-09-09T03:24:20;100240.28;;;14.87;97.31
48553;BME280;34335;51.566;6.994;2022-09-09T03:26:46;100245.78;;;14.78;95.93
48553;BME280;34335;51.566;6.994;2022-09-09T03:29:12;100233.81;;;14.69;96.23
48553;BME280;34335;51.566;6.994;2022-09-09T03:31:38;100238.97;;;14.71;93.48
48553;BME280;34335;51.566;6.994;2022-09-09T03:34:04;100242.34;;;14.76;92.99
48553;BME280;34335;51.566;6.994;2022-09-09T03:36:30;100241.47;;;14.75;93.04
48553;BME280;34335;51.566;6.994;2022-09-09T03:38:56;100231.06;;;14.74;96.93
48553;BME280;34335;51.566;6.994;2022-09-09T03:41:22;100226.94;;;14.63;94.51
48553;BME280;34335;51.566;6.994;2022-09-09T03:43:52;100232.91;;;14.69;96.32
48553;BME280;34335;51.566;6.994;2022-09-09T03:46:19;100233.00;;;14.64;96.17
48553;BME280;34335;51.566;6.994;2022-09-09T03:48:44;100232.13;;;14.67;97.25
48553;BME280;34335;51.566;6.994;2022-09-09T03:51:09;100233.00;;;14.65;98.88
48553;BME280;34335;51.566;6.994;2022-09-09T03:53:35;100226.25;;;14.55;94.37
48553;BME280;34335;51.566;6.994;2022-09-09T03:56:03;100236.56;;;14.61;96.83
48553;BME280;34335;51.566;6.994;2022-09-09T03:58:28;100240.19;;;14.56;100.00
48553;BME280;34335;51.566;6.994;2022-09-09T04:01:02;100230.38;;;14.65;100.00
48553;BME280;34335;51.566;6.994;2022-09-09T04:03:28;100240.03;;;14.62;99.76
48553;BME280;34335;51.566;6.994;2022-09-09T04:05:55;100238.25;;;14.64;98.67
48553;BME280;34335;51.566;6.994;2022-09-09T04:08:21;100237.53;;;14.57;99.88
48553;BME280;34335;51.566;6.994;2022-09-09T04:10:49;100244.59;;;14.55;98.22
48553;BME280;34335;51.566;6.994;2022-09-09T04:13:16;100236.97;;;14.46;98.47
48553;BME280;34335;51.566;6.994;2022-09-09T04:15:43;100231.53;;;14.54;100.00
48553;BME280;34335;51.566;6.994;2022-09-09T04:18:09;100243.81;;;14.50;100.00
48553;BME280;34335;51.566;6.994;2022-09-09T04:20:34;100240.31;;;14.51;100.00
48553;BME280;34335;51.566;6.994;2022-09-09T04:23:00;100236.97;;;14.44;100.00
48553;BME280;34335;51.566;6.994;2022-09-09T04:25:26;100235.91;;;14.53;100.00
48553;BME280;34335;51.566;6.994;2022-09-09T04:27:55;100232.69;;;14.42;100.00
48553;BME280;34335;51.566;6.994;2022-09-09T04:30:21;100235.16;;;14.48;99.44
48553;BME280;34335;51.566;6.994;2022-09-09T04:32:47;100231.75;;;14.44;99.16
48553;BME280;34335;51.566;6.994;2022-09-09T04:35:12;100235.84;;;14.55;100.00
48553;BME280;34335;51.566;6.994;2022-09-09T04:37:37;100236.06;;;14.47;99.25
48553;BME280;34335;51.566;6.994;2022-09-09T04:40:03;100243.94;;;14.45;100.00
48553;BME280;34335;51.566;6.994;2022-09-09T04:42:28;100242.03;;;14.52;100.00
48553;BME280;34335;51.566;6.994;2022-09-09T04:44:53;100243.81;;;14.50;100.00
48553;BME280;34335;51.566;6.994;2022-09-09T04:47:19;100241.41;;;14.42;97.62
48553;BME280;34335;51.566;6.994;2022-09-09T04:49:45;100243.56;;;14.61;99.23
48553;BME280;34335;51.566;6.994;2022-09-09T04:52:10;100239.97;;;14.65;100.00
48553;BME280;34335;51.566;6.994;2022-09-09T04:54:35;100240.16;;;14.57;100.00
48553;BME280;34335;51.566;6.994;2022-09-09T04:57:00;100247.94;;;14.60;100.00
48553;BME280;34335;51.566;6.994;2022-09-09T04:59:26;100242.03;;;14.52;98.47
48553;BME280;34335;51.566;6.994;2022-09-09T05:01:51;100240.72;;;14.72;98.21
48553;BME280;34335;51.566;6.994;2022-09-09T05:04:16;100243.38;;;14.70;98.01
48553;BME280;34335;51.566;6.994;2022-09-09T05:06:42;100237.91;;;14.79;100.00
48553;BME280;34335;51.566;6.994;2022-09-09T05:09:08;100243.09;;;14.81;98.51
48553;BME280;34335;51.566;6.994;2022-09-09T05:11:34;100241.94;;;14.91;98.57
48553;BME280;34335;51.566;6.994;2022-09-09T05:14:03;100243.97;;;14.80;96.36
48553;BME280;34335;51.566;6.994;2022-09-09T05:16:29;100238.69;;;14.83;96.10
48553;BME280;34335;51.566;6.994;2022-09-09T05:18:55;100240.28;;;14.87;97.21
48553;BME280;34335;51.566;6.994;2022-09-09T05:21:22;100234.09;;;14.91;98.64
48553;BME280;34335;51.566;6.994;2022-09-09T05:23:48;100238.38;;;14.94;99.35
48553;BME280;34335;51.566;6.994;2022-09-09T05:26:19;100234.34;;;14.82;97.21
48553;BME280;34335;51.566;6.994;2022-09-09T05:28:45;100231.31;;;14.98;99.63
48553;BME280;34335;51.566;6.994;2022-09-09T05:31:13;100228.84;;;14.91;96.68
48553;BME280;34335;51.566;6.994;2022-09-09T05:33:40;100234.91;;;14.93;96.62
48553;BME280;34335;51.566;6.994;2022-09-09T05:36:26;100234.75;;;15.00;98.80
48553;BME280;34335;51.566;6.994;2022-09-09T05:38:51;100229.69;;;14.92;99.27
48553;BME280;34335;51.566;6.994;2022-09-09T05:41:19;100224.50;;;14.90;95.14
48553;BME280;34335;51.566;6.994;2022-09-09T05:43:46;100223.31;;;15.02;99.17
48553;BME280;34335;51.566;6.994;2022-09-09T05:46:23;100229.34;;;15.06;100.00
48553;BME280;34335;51.566;6.994;2022-09-09T05:48:50;100226.81;;;15.03;98.46
48553;BME280;34335;51.566;6.994;2022-09-09T05:51:27;100224.34;;;14.96;97.12
48553;BME280;34335;51.566;6.994;2022-09-09T05:53:55;100225.78;;;15.08;98.50
48553;BME280;34335;51.566;6.994;2022-09-09T05:56:25;100226.94;;;14.98;96.58
48553;BME280;34335;51.566;6.994;2022-09-09T05:58:51;100232.13;;;15.00;96.76
48553;BME280;34335;51.566;6.994;2022-09-09T06:01:21;100232.63;;;15.14;99.35
48553;BME280;34335;51.566;6.994;2022-09-09T06:03:47;100237.13;;;15.09;98.41
48553;BME280;34335;51.566;6.994;2022-09-09T06:06:16;100236.16;;;15.13;96.43
48553;BME280;34335;51.566;6.994;2022-09-09T06:08:43;100242.28;;;15.12;98.15
48553;BME280;34335;51.566;6.994;2022-09-09T06:11:26;100240.47;;;15.14;97.96
48553;BME280;34335;51.566;6.994;2022-09-09T06:13:52;100242.09;;;15.18;98.84
48553;BME280;34335;51.566;6.994;2022-09-09T06:16:20;100241.16;;;15.21;98.20
48553;BME280;34335;51.566;6.994;2022-09-09T06:18:48;100247.28;;;15.20;96.52
48553;BME280;34335;51.566;6.994;2022-09-09T06:21:18;100245.34;;;15.28;96.18
48553;BME280;34335;51.566;6.994;2022-09-09T06:23:45;100250.47;;;15.31;95.59
48553;BME280;34335;51.566;6.994;2022-09-09T06:26:19;100244.00;;;15.45;96.48
48553;BME280;34335;51.566;6.994;2022-09-09T06:28:49;100246.00;;;15.35;96.45
48553;BME280;34335;51.566;6.994;2022-09-09T06:31:17;100251.59;;;15.54;97.09
48553;BME280;34335;51.566;6.994;2022-09-09T06:33:46;100248.34;;;15.46;95.02
48553;BME280;34335;51.566;6.994;2022-09-09T06:36:18;100246.16;;;15.60;97.36
48553;BME280;34335;51.566;6.994;2022-09-09T06:38:45;100242.91;;;15.52;96.05
48553;BME280;34335;51.566;6.994;2022-09-09T06:41:12;100244.41;;;15.61;96.30
48553;BME280;34335;51.566;6.994;2022-09-09T06:43:38;100248.84;;;15.58;94.74
48553;BME280;34335;51.566;6.994;2022-09-09T06:46:06;100250.47;;;15.63;96.38
48553;BME280;34335;51.566;6.994;2022-09-09T06:48:33;100249.53;;;15.64;96.38
48553;BME280;34335;51.566;6.994;2022-09-09T06:51:06;100256.44;;;15.68;96.20
48553;BME280;34335;51.566;6.994;2022-09-09T06:53:32;100251.72;;;15.79;96.29
48553;BME280;34335;51.566;6.994;2022-09-09T06:55:59;100249.84;;;15.84;95.91
48553;BME280;34335;51.566;6.994;2022-09-09T06:58:26;100253.34;;;15.83;94.94
48553;BME280;34335;51.566;6.994;2022-09-09T07:00:51;100259.00;;;16.01;95.59
48553;BME280;34335;51.566;6.994;2022-09-09T07:03:17;100257.06;;;16.06;95.67
48553;BME280;34335;51.566;6.994;2022-09-09T07:05:43;100260.59;;;16.05;94.34
48553;BME280;34335;51.566;6.994;2022-09-09T07:08:10;100260.72;;;16.00;93.49
48553;BME280;34335;51.566;6.994;2022-09-09T07:10:35;100254.53;;;16.03;93.38
48553;BME280;34335;51.566;6.994;2022-09-09T07:13:01;100262.25;;;16.08;93.97
48553;BME280;34335;51.566;6.994;2022-09-09T07:15:27;100260.25;;;16.16;94.49
48553;BME280;34335;51.566;6.994;2022-09-09T07:17:52;100255.72;;;16.21;95.54
48553;BME280;34335;51.566;6.994;2022-09-09T07:20:18;100269.81;;;16.18;93.11
48553;BME280;34335;51.566;6.994;2022-09-09T07:22:45;100269.69;;;16.22;94.17
48553;BME280;34335;51.566;6.994;2022-09-09T07:25:10;100267.88;;;16.24;93.89
48553;BME280;34335;51.566;6.994;2022-09-09T07:27:36;100272.91;;;16.31;94.50
48553;BME280;34335;51.566;6.994;2022-09-09T07:30:01;100273.56;;;16.38;94.36
48553;BME280;34335;51.566;6.994;2022-09-09T07:32:27;100274.09;;;16.49;94.63
48553;BME280;34335;51.566;6.994;2022-09-09T07:34:55;100276.72;;;16.49;92.92
48553;BME280;34335;51.566;6.994;2022-09-09T07:37:21;100268.00;;;16.74;93.66
48553;BME280;34335;51.566;6.994;2022-09-09T07:39:47;100267.81;;;16.80;93.44
48553;BME280;34335;51.566;6.994;2022-09-09T07:42:12;100276.59;;;16.79;92.10
48553;BME280;34335;51.566;6.994;2022-09-09T07:44:38;100278.00;;;16.90;92.19
48553;BME280;34335;51.566;6.994;2022-09-09T07:47:05;100279.66;;;16.94;91.11
48553;BME280;34335;51.566;6.994;2022-09-09T07:49:30;100262.69;;;17.03;89.97
48553;BME280;34335;51.566;6.994;2022-09-09T07:51:57;100274.56;;;17.15;89.40
48553;BME280;34335;51.566;6.994;2022-09-09T07:54:23;100269.47;;;17.10;88.35
48553;BME280;34335;51.566;6.994;2022-09-09T07:56:48;100285.56;;;17.01;87.96
48553;BME280;34335;51.566;6.994;2022-09-09T07:59:14;100288.34;;;16.96;88.89
48553;BME280;34335;51.566;6.994;2022-09-09T08:01:59;100289.31;;;16.92;87.78
48553;BME280;34335;51.566;6.994;2022-09-09T08:04:25;100284.03;;;16.93;88.22
48553;BME280;34335;51.566;6.994;2022-09-09T08:06:56;100282.28;;;16.94;87.55
48553;BME280;34335;51.566;6.994;2022-09-09T08:09:22;100286.19;;;16.80;85.52
48553;BME280;34335;51.566;6.994;2022-09-09T08:11:50;100291.00;;;16.94;86.14
48553;BME280;34335;51.566;6.994;2022-09-09T08:14:16;100292.69;;;16.97;84.01
48553;BME280;34335;51.566;6.994;2022-09-09T08:16:44;100292.72;;;16.95;83.70
48553;BME280;34335;51.566;6.994;2022-09-09T08:19:10;100286.50;;;16.98;84.51
48553;BME280;34335;51.566;6.994;2022-09-09T08:21:38;100291.13;;;16.90;83.67
48553;BME280;34335;51.566;6.994;2022-09-09T08:24:06;100293.59;;;16.96;84.88
48553;BME280;34335;51.566;6.994;2022-09-09T08:26:37;100296.28;;;16.93;84.56
48553;BME280;34335;51.566;6.994;2022-09-09T08:29:05;100292.16;;;16.86;84.56
48553;BME280;34335;51.566;6.994;2022-09-09T08:31:36;100300.84;;;16.88;83.52
48553;BME280;34335;51.566;6.994;2022-09-09T08:34:03;100291.88;;;16.95;83.74
48553;BME280;34335;51.566;6.994;2022-09-09T08:36:31;100298.63;;;17.02;83.97
48553;BME280;34335;51.566;6.994;2022-09-09T08:38:59;100298.78;;;16.97;83.60
48553;BME280;34335;51.566;6.994;2022-09-09T08:41:42;100303.06;;;17.00;82.86
48553;BME280;34335;51.566;6.994;2022-09-09T08:55:14;100303.00;;;17.27;80.38
48553;BME280;34335;51.566;6.994;2022-09-09T08:57:42;100301.91;;;17.58;78.38
48553;BME280;34335;51.566;6.994;2022-09-09T09:00:11;100302.50;;;17.90;79.75
48553;BME280;34335;51.566;6.994;2022-09-09T09:02:52;100304.91;;;17.96;78.36
48553;BME280;34335;51.566;6.994;2022-09-09T09:05:46;100299.69;;;17.95;77.22
48553;BME280;34335;51.566;6.994;2022-09-09T09:08:25;100291.75;;;17.96;75.53
48553;BME280;34335;51.566;6.994;2022-09-09T09:10:55;100294.75;;;18.11;75.36
48553;BME280;34335;51.566;6.994;2022-09-09T09:16:21;100294.25;;;18.45;76.36
48553;BME280;34335;51.566;6.994;2022-09-09T09:18:49;100295.41;;;18.81;74.23
48553;BME280;34335;51.566;6.994;2022-09-09T09:21:21;100292.38;;;18.90;71.42
48553;BME280;34335;51.566;6.994;2022-09-09T09:23:57;100289.59;;;19.15;72.20
48553;BME280;34335;51.566;6.994;2022-09-09T09:26:30;100300.72;;;19.43;70.09
48553;BME280;34335;51.566;6.994;2022-09-09T09:28:58;100294.41;;;19.26;70.06
48553;BME280;34335;51.566;6.994;2022-09-09T09:31:25;100297.19;;;19.23;70.22
48553;BME280;34335;51.566;6.994;2022-09-09T09:33:56;100292.75;;;19.24;69.92
48553;BME280;34335;51.566;6.994;2022-09-09T09:36:45;100301.84;;;19.17;69.69
48553;BME280;34335;51.566;6.994;2022-09-09T09:39:25;100295.97;;;18.89;68.13
48553;BME280;34335;51.566;6.994;2022-09-09T09:41:51;100311.81;;;18.88;68.45
48553;BME280;34335;51.566;6.994;2022-09-09T09:44:29;100306.09;;;19.00;69.22
48553;BME280;34335;51.566;6.994;2022-09-09T09:47:07;100302.84;;;19.14;68.55
48553;BME280;34335;51.566;6.994;2022-09-09T09:49:33;100294.34;;;19.28;69.75
48553;BME280;34335;51.566;6.994;2022-09-09T09:52:02;100303.22;;;19.46;70.29
48553;BME280;34335;51.566;6.994;2022-09-09T09:54:38;100299.63;;;19.28;68.72
48553;BME280;34335;51.566;6.994;2022-09-09T09:57:09;100302.97;;;19.11;67.69
48553;BME280;34335;51.566;6.994;2022-09-09T09:59:36;100301.13;;;19.13;68.65
48553;BME280;34335;51.566;6.994;2022-09-09T10:04:40;100303.28;;;19.24;71.26
48553;BME280;34335;51.566;6.994;2022-09-09T10:07:17;100312.19;;;19.21;69.53
48553;BME280;34335;51.566;6.994;2022-09-09T10:09:43;100307.22;;;19.15;69.58
48553;BME280;34335;51.566;6.994;2022-09-09T10:17:54;100309.13;;;19.32;68.79
48553;BME280;34335;51.566;6.994;2022-09-09T10:23:46;100301.34;;;19.08;69.89
48553;BME280;34335;51.566;6.994;2022-09-09T10:26:29;100313.63;;;18.87;69.50
48553;BME280;34335;51.566;6.994;2022-09-09T10:29:34;100310.47;;;19.20;71.01
48553;BME280;34335;51.566;6.994;2022-09-09T10:48:53;100289.56;;;20.33;63.82
48553;BME280;34335;51.566;6.994;2022-09-09T10:56:28;100280.72;;;20.15;64.81
48553;BME280;34335;51.566;6.994;2022-09-09T10:59:13;100277.91;;;20.01;64.98
48553;BME280;34335;51.566;6.994;2022-09-09T11:01:46;100288.16;;;20.07;63.36
48553;BME280;34335;51.566;6.994;2022-09-09T11:04:22;100290.88;;;20.05;64.32
48553;BME280;34335;51.566;6.994;2022-09-09T11:06:52;100286.00;;;19.77;63.04
48553;BME280;34335;51.566;6.994;2022-09-09T11:09:22;100287.38;;;19.67;63.74
48553;BME280;34335;51.566;6.994;2022-09-09T11:11:55;100282.31;;;19.81;64.12
48553;BME280;34335;51.566;6.994;2022-09-09T11:17:10;100292.44;;;19.71;63.47
48553;BME280;34335;51.566;6.994;2022-09-09T11:19:39;100286.84;;;19.58;63.55
48553;BME280;34335;51.566;6.994;2022-09-09T11:24:40;100278.88;;;19.79;62.73
48553;BME280;34335;51.566;6.994;2022-09-09T11:32:54;100275.31;;;19.80;63.97
48553;BME280;34335;51.566;6.994;2022-09-09T11:40:37;100271.03;;;19.97;63.86
48553;BME280;34335;51.566;6.994;2022-09-09T11:43:05;100274.03;;;20.08;63.81
48553;BME280;34335;51.566;6.994;2022-09-09T11:45:35;100272.97;;;20.12;63.43
48553;BME280;34335;51.566;6.994;2022-09-09T11:48:01;100274.38;;;20.19;64.76
48553;BME280;34335;51.566;6.994;2022-09-09T11:50:30;100266.47;;;20.19;64.70
48553;BME280;34335;51.566;6.994;2022-09-09T11:53:20;100264.28;;;20.10;63.57
48553;BME280;34335;51.566;6.994;2022-09-09T11:55:48;100270.38;;;20.11;64.06
48553;BME280;34335;51.566;6.994;2022-09-09T11:58:24;100267.47;;;20.17;63.73
48553;BME280;34335;51.566;6.994;2022-09-09T12:00:49;100264.72;;;20.37;64.02
48553;BME280;34335;51.566;6.994;2022-09-09T12:03:40;100261.47;;;20.50;63.03
48553;BME280;34335;51.566;6.994;2022-09-09T12:06:27;100258.13;;;20.46;61.61
48553;BME280;34335;51.566;6.994;2022-09-09T12:09:04;100262.16;;;20.36;61.81
48553;BME280;34335;51.566;6.994;2022-09-09T12:11:31;100263.84;;;20.37;64.54
48553;BME280;34335;51.566;6.994;2022-09-09T12:13:58;100260.19;;;20.39;65.02
48553;BME280;34335;51.566;6.994;2022-09-09T12:16:32;100261.19;;;20.19;63.64
48553;BME280;34335;51.566;6.994;2022-09-09T12:19:20;100272.88;;;20.33;65.22
48553;BME280;34335;51.566;6.994;2022-09-09T12:21:57;100269.38;;;20.50;64.30
48553;BME280;34335;51.566;6.994;2022-09-09T12:24:39;100249.38;;;20.63;64.47
48553;BME280;34335;51.566;6.994;2022-09-09T12:30:12;100265.88;;;21.04;63.84
48553;BME280;34335;51.566;6.994;2022-09-09T12:32:39;100268.28;;;20.91;63.65
48553;BME280;34335;51.566;6.994;2022-09-09T12:35:21;100269.00;;;20.58;63.51
48553;BME280;34335;51.566;6.994;2022-09-09T12:37:51;100268.75;;;20.27;63.33
48553;BME280;34335;51.566;6.994;2022-09-09T12:40:33;100279.41;;;20.43;63.96
48553;BME280;34335;51.566;6.994;2022-09-09T12:43:01;100265.75;;;20.52;63.77
48553;BME280;34335;51.566;6.994;2022-09-09T12:45:30;100274.72;;;20.31;63.11
48553;BME280;34335;51.566;6.994;2022-09-09T12:48:00;100270.88;;;20.55;64.45
48553;BME280;34335;51.566;6.994;2022-09-09T12:50:33;100266.47;;;20.19;63.10
48553;BME280;34335;51.566;6.994;2022-09-09T12:53:12;100264.50;;;20.42;64.46
48553;BME280;34335;51.566;6.994;2022-09-09T12:55:50;100260.75;;;20.46;64.45
48553;BME280;34335;51.566;6.994;2022-09-09T12:58:18;100273.78;;;20.14;63.10
48553;BME280;34335;51.566;6.994;2022-09-09T13:00:54;100290.47;;;19.96;65.98
48553;BME280;34335;51.566;6.994;2022-09-09T13:03:21;100317.25;;;18.18;81.81
48553;BME280;34335;51.566;6.994;2022-09-09T13:05:47;100320.06;;;18.35;84.44
48553;BME280;34335;51.566;6.994;2022-09-09T13:08:14;100302.59;;;18.77;82.43
48553;BME280;34335;51.566;6.994;2022-09-09T13:10:49;100304.47;;;18.53;84.16
48553;BME280;34335;51.566;6.994;2022-09-09T13:13:23;100303.28;;;18.38;85.68
48553;BME280;34335;51.566;6.994;2022-09-09T13:15:56;100300.56;;;18.19;86.33
48553;BME280;34335;51.566;6.994;2022-09-09T13:18:40;100305.19;;;17.88;88.28
48553;BME280;34335;51.566;6.994;2022-09-09T13:21:07;100296.84;;;18.01;88.74
48553;BME280;34335;51.566;6.994;2022-09-09T13:23:34;100294.50;;;17.46;91.21
48553;BME280;34335;51.566;6.994;2022-09-09T13:26:03;100296.47;;;17.39;90.39
48553;BME280;34335;51.566;6.994;2022-09-09T13:28:30;100303.72;;;17.07;92.65
48553;BME280;34335;51.566;6.994;2022-09-09T13:33:36;100301.84;;;17.10;93.56
48553;BME280;34335;51.566;6.994;2022-09-09T13:36:06;100296.28;;;16.93;94.66
48553;BME280;34335;51.566;6.994;2022-09-09T13:38:40;100296.41;;;17.40;93.28
48553;BME280;34335;51.566;6.994;2022-09-09T13:41:10;100287.97;;;17.32;94.73
48553;BME280;34335;51.566;6.994;2022-09-09T13:43:53;100289.16;;;17.95;91.97
48553;BME280;34335;51.566;6.994;2022-09-09T13:46:38;100278.91;;;17.88;92.42
48553;BME280;34335;51.566;6.994;2022-09-09T13:51:37;100283.88;;;17.72;93.55
48553;BME280;34335;51.566;6.994;2022-09-09T13:54:06;100273.91;;;18.04;92.65
48553;BME280;34335;51.566;6.994;2022-09-09T13:56:34;100266.34;;;18.19;93.99
48553;BME280;34335;51.566;6.994;2022-09-09T13:59:00;100271.13;;;18.31;93.33
48553;BME280;34335;51.566;6.994;2022-09-09T14:01:26;100270.97;;;18.34;93.51
48553;BME280;34335;51.566;6.994;2022-09-09T14:03:53;100269.38;;;18.52;93.00
48553;BME280;34335;51.566;6.994;2022-09-09T14:06:18;100259.28;;;18.84;93.72
48553;BME280;34335;51.566;6.994;2022-09-09T14:08:44;100264.22;;;18.92;93.78
48553;BME280;34335;51.566;6.994;2022-09-09T14:11:12;100260.91;;;19.28;92.68
48553;BME280;34335;51.566;6.994;2022-09-09T14:13:38;100254.69;;;19.90;93.06
48553;BME280;34335;51.566;6.994;2022-09-09T14:16:03;100253.84;;;20.26;89.87
48553;BME280;34335;51.566;6.994;2022-09-09T14:18:29;100250.75;;;20.35;87.34
48553;BME280;34335;51.566;6.994;2022-09-09T14:20:54;100257.81;;;19.98;84.72
48553;BME280;34335;51.566;6.994;2022-09-09T14:23:19;100258.28;;;19.87;85.64
48553;BME280;34335;51.566;6.994;2022-09-09T14:25:47;100250.50;;;20.40;88.95
48553;BME280;34335;51.566;6.994;2022-09-09T14:28:14;100252.38;;;20.38;84.63
48553;BME280;34335;51.566;6.994;2022-09-09T14:30:41;100247.91;;;20.75;84.91
48553;BME280;34335;51.566;6.994;2022-09-09T14:33:07;100242.13;;;20.49;nan
48553;BME280;34335;51.566;6.994;2022-09-09T14:35:34;100252.81;;;20.29;83.26
48553;BME280;34335;51.566;6.994;2022-09-09T14:37:59;100239.59;;;20.83;83.91
48553;BME280;34335;51.566;6.994;2022-09-09T14:40:26;100226.09;;;21.23;83.03
48553;BME280;34335;51.566;6.994;2022-09-09T14:42:52;100233.25;;;21.21;80.21
48553;BME280;34335;51.566;6.994;2022-09-09T14:45:17;100234.28;;;20.48;78.46
48553;BME280;34335;51.566;6.994;2022-09-09T14:47:43;100228.47;;;20.59;81.18
48553;BME280;34335;51.566;6.994;2022-09-09T14:50:08;100236.66;;;20.35;80.16
48553;BME280;34335;51.566;6.994;2022-09-09T14:52:34;100232.47;;;19.75;77.80